sensor_id;sensor_type;location;lat;lon;timestamp;P1;durP1;ratioP1;P2;durP2;ratioP2
46589;SDS011;32313;48.722;9.362;2023-05-15T00:00:05;15.63;;;14.27;;
46589;SDS011;32313;48.722;9.362;2023-05-15T00:02:37;16.13;;;14.73;;
46589;SDS011;32313;48.722;9.362;2023-05-15T00:05:04;16.17;;;14.50;;
46589;SDS011;32313;48.722;9.362;2023-05-15T00:07:31;16.93;;;15.37;;
46589;SDS011;32313;48.722;9.362;2023-05-15T00:09:57;17.70;;;15.90;;
46589;SDS011;32313;48.722;9.362;2023-05-15T00:12:23;16.20;;;14.70;;
46589;SDS011;32313;48.722;9.362;2023-05-15T00:14:49;15.90;;;14.50;;
46589;SDS011;32313;48.722;9.362;2023-05-15T00:17:15;15.43;;;14.03;;
46589;SDS011;32313;48.722;9.362;2023-05-15T00:19:40;17.67;;;16.07;;
46589;SDS011;32313;48.722;9.362;2023-05-15T00:22:09;17.10;;;15.40;;
46589;SDS011;32313;48.722;9.362;2023-05-15T00:24:35;15.90;;;14.37;;
46589;SDS011;32313;48.722;9.362;2023-05-15T00:27:01;17.83;;;16.07;;
46589;SDS011;32313;48.722;9.362;2023-05-15T00:29:28;19.00;;;17.20;;
46589;SDS011;32313;48.722;9.362;2023-05-15T00:31:54;18.33;;;16.57;;
46589;SDS011;32313;48.722;9.362;2023-05-15T00:34:20;18.40;;;16.70;;
46589;SDS011;32313;48.722;9.362;2023-05-15T00:36:46;17.57;;;15.87;;
46589;SDS011;32313;48.722;9.362;2023-05-15T00:39:12;19.60;;;17.70;;
46589;SDS011;32313;48.722;9.362;2023-05-15T00:41:38;19.73;;;17.67;;
46589;SDS011;32313;48.722;9.362;2023-05-15T00:44:06;18.47;;;16.57;;
46589;SDS011;32313;48.722;9.362;2023-05-15T00:46:33;17.53;;;15.87;;
46589;SDS011;32313;48.722;9.362;2023-05-15T00:49:00;20.63;;;18.53;;
46589;SDS011;32313;48.722;9.362;2023-05-15T00:51:28;19.20;;;17.17;;
46589;SDS011;32313;48.722;9.362;2023-05-15T00:53:54;20.53;;;18.43;;
46589;SDS011;32313;48.722;9.362;2023-05-15T00:56:20;19.93;;;18.03;;
46589;SDS011;32313;48.722;9.362;2023-05-15T00:58:48;18.53;;;16.97;;
46589;SDS011;32313;48.722;9.362;2023-05-15T01:01:16;18.53;;;16.63;;
46589;SDS011;32313;48.722;9.362;2023-05-15T01:03:43;20.07;;;18.00;;
46589;SDS011;32313;48.722;9.362;2023-05-15T01:06:09;17.73;;;16.10;;
46589;SDS011;32313;48.722;9.362;2023-05-15T01:08:42;17.97;;;16.27;;
46589;SDS011;32313;48.722;9.362;2023-05-15T01:11:10;18.80;;;17.00;;
46589;SDS011;32313;48.722;9.362;2023-05-15T01:13:38;18.73;;;16.93;;
46589;SDS011;32313;48.722;9.362;2023-05-15T01:16:04;18.53;;;16.63;;
46589;SDS011;32313;48.722;9.362;2023-05-15T01:18:31;17.73;;;15.47;;
46589;SDS011;32313;48.722;9.362;2023-05-15T01:23:38;17.53;;;15.90;;
46589;SDS011;32313;48.722;9.362;2023-05-15T01:37:54;17.73;;;16.03;;
46589;SDS011;32313;48.722;9.362;2023-05-15T01:40:43;17.47;;;15.73;;
46589;SDS011;32313;48.722;9.362;2023-05-15T01:43:14;17.30;;;15.77;;
46589;SDS011;32313;48.722;9.362;2023-05-15T01:45:46;16.30;;;14.87;;
46589;SDS011;32313;48.722;9.362;2023-05-15T01:48:13;16.30;;;14.90;;
46589;SDS011;32313;48.722;9.362;2023-05-15T01:50:42;17.33;;;15.77;;
46589;SDS011;32313;48.722;9.362;2023-05-15T01:53:09;17.10;;;15.60;;
46589;SDS011;32313;48.722;9.362;2023-05-15T01:55:36;17.60;;;15.90;;
46589;SDS011;32313;48.722;9.362;2023-05-15T01:58:04;17.10;;;15.30;;
46589;SDS011;32313;48.722;9.362;2023-05-15T02:00:30;16.70;;;15.03;;
46589;SDS011;32313;48.722;9.362;2023-05-15T02:02:58;16.93;;;15.43;;
46589;SDS011;32313;48.722;9.362;2023-05-15T02:05:25;17.43;;;15.73;;
46589;SDS011;32313;48.722;9.362;2023-05-15T02:07:51;18.17;;;16.53;;
46589;SDS011;32313;48.722;9.362;2023-05-15T02:10:17;19.00;;;17.10;;
46589;SDS011;32313;48.722;9.362;2023-05-15T02:12:47;18.13;;;16.43;;
46589;SDS011;32313;48.722;9.362;2023-05-15T02:15:14;15.40;;;13.80;;
46589;SDS011;32313;48.722;9.362;2023-05-15T02:17:45;16.37;;;14.90;;
46589;SDS011;32313;48.722;9.362;2023-05-15T02:20:11;17.70;;;15.90;;
46589;SDS011;32313;48.722;9.362;2023-05-15T02:22:37;17.10;;;15.47;;
46589;SDS011;32313;48.722;9.362;2023-05-15T02:25:03;15.77;;;14.37;;
46589;SDS011;32313;48.722;9.362;2023-05-15T02:27:33;16.50;;;14.90;;
46589;SDS011;32313;48.722;9.362;2023-05-15T02:30:17;15.00;;;13.73;;
46589;SDS011;32313;48.722;9.362;2023-05-15T02:33:11;15.90;;;14.50;;
46589;SDS011;32313;48.722;9.362;2023-05-15T02:35:47;15.20;;;13.80;;
46589;SDS011;32313;48.722;9.362;2023-05-15T02:38:15;17.03;;;15.03;;
46589;SDS011;32313;48.722;9.362;2023-05-15T02:40:44;15.37;;;13.73;;
46589;SDS011;32313;48.722;9.362;2023-05-15T02:43:12;15.30;;;13.87;;
46589;SDS011;32313;48.722;9.362;2023-05-15T02:45:41;15.80;;;14.30;;
46589;SDS011;32313;48.722;9.362;2023-05-15T02:48:10;15.27;;;13.90;;
46589;SDS011;32313;48.722;9.362;2023-05-15T02:50:37;15.40;;;14.00;;
46589;SDS011;32313;48.722;9.362;2023-05-15T02:53:03;14.83;;;13.53;;
46589;SDS011;32313;48.722;9.362;2023-05-15T02:55:30;16.03;;;14.63;;
46589;SDS011;32313;48.722;9.362;2023-05-15T02:57:56;14.93;;;13.53;;
46589;SDS011;32313;48.722;9.362;2023-05-15T03:00:23;15.90;;;14.40;;
46589;SDS011;32313;48.722;9.362;2023-05-15T03:02:48;14.83;;;13.43;;
46589;SDS011;32313;48.722;9.362;2023-05-15T03:05:14;14.97;;;13.57;;
46589;SDS011;32313;48.722;9.362;2023-05-15T03:07:40;15.20;;;13.77;;
46589;SDS011;32313;48.722;9.362;2023-05-15T03:10:06;14.73;;;13.37;;
46589;SDS011;32313;48.722;9.362;2023-05-15T03:12:32;15.93;;;14.63;;
46589;SDS011;32313;48.722;9.362;2023-05-15T03:14:58;15.70;;;14.40;;
46589;SDS011;32313;48.722;9.362;2023-05-15T03:17:26;14.27;;;13.07;;
46589;SDS011;32313;48.722;9.362;2023-05-15T03:19:52;14.77;;;13.50;;
46589;SDS011;32313;48.722;9.362;2023-05-15T03:22:18;15.03;;;13.63;;
46589;SDS011;32313;48.722;9.362;2023-05-15T03:24:44;14.43;;;13.13;;
46589;SDS011;32313;48.722;9.362;2023-05-15T03:27:10;13.90;;;12.63;;
46589;SDS011;32313;48.722;9.362;2023-05-15T03:29:36;14.20;;;12.90;;
46589;SDS011;32313;48.722;9.362;2023-05-15T03:32:02;14.90;;;13.47;;
46589;SDS011;32313;48.722;9.362;2023-05-15T03:34:28;15.37;;;13.80;;
46589;SDS011;32313;48.722;9.362;2023-05-15T03:36:54;15.03;;;13.63;;
46589;SDS011;32313;48.722;9.362;2023-05-15T03:39:20;14.20;;;12.90;;
46589;SDS011;32313;48.722;9.362;2023-05-15T03:41:47;15.43;;;13.93;;
46589;SDS011;32313;48.722;9.362;2023-05-15T03:44:13;15.13;;;13.73;;
46589;SDS011;32313;48.722;9.362;2023-05-15T03:46:39;15.87;;;14.37;;
46589;SDS011;32313;48.722;9.362;2023-05-15T03:49:04;15.07;;;13.77;;
46589;SDS011;32313;48.722;9.362;2023-05-15T03:51:32;14.40;;;13.20;;
46589;SDS011;32313;48.722;9.362;2023-05-15T03:53:58;14.87;;;13.47;;
46589;SDS011;32313;48.722;9.362;2023-05-15T03:56:24;15.90;;;14.30;;
46589;SDS011;32313;48.722;9.362;2023-05-15T03:58:50;17.20;;;15.40;;
46589;SDS011;32313;48.722;9.362;2023-05-15T04:01:16;15.23;;;13.83;;
46589;SDS011;32313;48.722;9.362;2023-05-15T04:03:42;15.00;;;13.60;;
46589;SDS011;32313;48.722;9.362;2023-05-15T04:06:07;15.27;;;13.87;;
46589;SDS011;32313;48.722;9.362;2023-05-15T04:08:33;16.63;;;15.13;;
46589;SDS011;32313;48.722;9.362;2023-05-15T04:10:59;15.67;;;14.10;;
46589;SDS011;32313;48.722;9.362;2023-05-15T04:13:25;15.23;;;13.83;;
46589;SDS011;32313;48.722;9.362;2023-05-15T04:15:51;15.13;;;13.57;;
46589;SDS011;32313;48.722;9.362;2023-05-15T04:18:18;15.93;;;14.33;;
46589;SDS011;32313;48.722;9.362;2023-05-15T04:20:43;14.30;;;12.93;;
46589;SDS011;32313;48.722;9.362;2023-05-15T04:23:09;14.10;;;12.87;;
46589;SDS011;32313;48.722;9.362;2023-05-15T04:25:35;14.93;;;13.53;;
46589;SDS011;32313;48.722;9.362;2023-05-15T04:28:02;17.27;;;13.60;;
46589;SDS011;32313;48.722;9.362;2023-05-15T04:30:28;16.47;;;13.73;;
46589;SDS011;32313;48.722;9.362;2023-05-15T04:32:54;13.60;;;12.20;;
46589;SDS011;32313;48.722;9.362;2023-05-15T04:35:19;14.40;;;12.97;;
46589;SDS011;32313;48.722;9.362;2023-05-15T04:37:45;14.60;;;13.27;;
46589;SDS011;32313;48.722;9.362;2023-05-15T04:40:11;14.10;;;12.83;;
46589;SDS011;32313;48.722;9.362;2023-05-15T04:42:40;13.43;;;12.23;;
46589;SDS011;32313;48.722;9.362;2023-05-15T04:45:06;14.20;;;12.90;;
46589;SDS011;32313;48.722;9.362;2023-05-15T04:47:33;11.47;;;10.57;;
46589;SDS011;32313;48.722;9.362;2023-05-15T04:49:59;14.50;;;13.30;;
46589;SDS011;32313;48.722;9.362;2023-05-15T04:52:25;13.50;;;12.30;;
46589;SDS011;32313;48.722;9.362;2023-05-15T04:54:51;13.10;;;11.90;;
46589;SDS011;32313;48.722;9.362;2023-05-15T04:57:19;15.73;;;14.27;;
46589;SDS011;32313;48.722;9.362;2023-05-15T04:59:45;13.37;;;12.07;;
46589;SDS011;32313;48.722;9.362;2023-05-15T05:02:11;14.10;;;12.70;;
46589;SDS011;32313;48.722;9.362;2023-05-15T05:04:37;12.87;;;11.77;;
46589;SDS011;32313;48.722;9.362;2023-05-15T05:07:03;12.33;;;11.20;;
46589;SDS011;32313;48.722;9.362;2023-05-15T05:09:30;11.73;;;10.73;;
46589;SDS011;32313;48.722;9.362;2023-05-15T05:11:59;11.70;;;10.60;;
46589;SDS011;32313;48.722;9.362;2023-05-15T05:14:26;11.50;;;10.40;;
46589;SDS011;32313;48.722;9.362;2023-05-15T05:16:51;10.27;;;9.47;;
46589;SDS011;32313;48.722;9.362;2023-05-15T05:19:17;9.57;;;8.77;;
46589;SDS011;32313;48.722;9.362;2023-05-15T05:21:43;8.27;;;7.67;;
46589;SDS011;32313;48.722;9.362;2023-05-15T05:24:09;8.93;;;8.33;;
46589;SDS011;32313;48.722;9.362;2023-05-15T05:26:35;7.97;;;7.37;;
46589;SDS011;32313;48.722;9.362;2023-05-15T05:29:01;8.60;;;7.90;;
46589;SDS011;32313;48.722;9.362;2023-05-15T05:31:27;9.00;;;8.30;;
46589;SDS011;32313;48.722;9.362;2023-05-15T05:33:52;8.43;;;7.67;;
46589;SDS011;32313;48.722;9.362;2023-05-15T05:36:18;7.67;;;7.00;;
46589;SDS011;32313;48.722;9.362;2023-05-15T05:38:44;8.27;;;7.53;;
46589;SDS011;32313;48.722;9.362;2023-05-15T05:41:09;9.00;;;8.30;;
46589;SDS011;32313;48.722;9.362;2023-05-15T05:43:35;8.17;;;7.47;;
46589;SDS011;32313;48.722;9.362;2023-05-15T05:46:01;7.67;;;7.07;;
46589;SDS011;32313;48.722;9.362;2023-05-15T05:48:27;8.50;;;7.70;;
46589;SDS011;32313;48.722;9.362;2023-05-15T05:50:53;8.77;;;8.03;;
46589;SDS011;32313;48.722;9.362;2023-05-15T05:53:19;8.53;;;7.20;;
46589;SDS011;32313;48.722;9.362;2023-05-15T05:55:44;8.47;;;7.67;;
46589;SDS011;32313;48.722;9.362;2023-05-15T05:58:10;8.17;;;7.47;;
46589;SDS011;32313;48.722;9.362;2023-05-15T06:00:36;8.00;;;7.20;;
46589;SDS011;32313;48.722;9.362;2023-05-15T06:03:02;7.30;;;6.70;;
46589;SDS011;32313;48.722;9.362;2023-05-15T06:05:28;8.47;;;7.77;;
46589;SDS011;32313;48.722;9.362;2023-05-15T06:07:54;8.53;;;7.83;;
46589;SDS011;32313;48.722;9.362;2023-05-15T06:10:20;9.10;;;8.20;;
46589;SDS011;32313;48.722;9.362;2023-05-15T06:12:47;8.70;;;7.90;;
46589;SDS011;32313;48.722;9.362;2023-05-15T06:15:13;8.33;;;7.33;;
46589;SDS011;32313;48.722;9.362;2023-05-15T06:17:40;8.20;;;7.40;;
46589;SDS011;32313;48.722;9.362;2023-05-15T06:20:06;7.87;;;7.00;;
46589;SDS011;32313;48.722;9.362;2023-05-15T06:22:33;9.37;;;6.97;;
46589;SDS011;32313;48.722;9.362;2023-05-15T06:25:00;8.17;;;7.10;;
46589;SDS011;32313;48.722;9.362;2023-05-15T06:27:27;8.03;;;7.23;;
46589;SDS011;32313;48.722;9.362;2023-05-15T06:29:53;8.10;;;7.40;;
46589;SDS011;32313;48.722;9.362;2023-05-15T06:32:19;7.27;;;6.57;;
46589;SDS011;32313;48.722;9.362;2023-05-15T06:34:45;7.73;;;7.00;;
46589;SDS011;32313;48.722;9.362;2023-05-15T06:37:11;7.40;;;6.80;;
46589;SDS011;32313;48.722;9.362;2023-05-15T06:39:37;7.20;;;6.50;;
46589;SDS011;32313;48.722;9.362;2023-05-15T06:42:03;7.00;;;6.47;;
46589;SDS011;32313;48.722;9.362;2023-05-15T06:44:29;7.57;;;6.87;;
46589;SDS011;32313;48.722;9.362;2023-05-15T06:46:55;7.77;;;6.97;;
46589;SDS011;32313;48.722;9.362;2023-05-15T06:49:22;7.53;;;6.27;;
46589;SDS011;32313;48.722;9.362;2023-05-15T06:51:48;9.00;;;6.70;;
46589;SDS011;32313;48.722;9.362;2023-05-15T06:54:14;7.30;;;5.50;;
46589;SDS011;32313;48.722;9.362;2023-05-15T06:56:40;6.60;;;6.00;;
46589;SDS011;32313;48.722;9.362;2023-05-15T06:59:06;9.20;;;6.60;;
46589;SDS011;32313;48.722;9.362;2023-05-15T07:01:32;8.03;;;5.80;;
46589;SDS011;32313;48.722;9.362;2023-05-15T07:03:58;7.10;;;6.37;;
46589;SDS011;32313;48.722;9.362;2023-05-15T07:06:23;8.80;;;5.93;;
46589;SDS011;32313;48.722;9.362;2023-05-15T07:08:50;11.90;;;6.83;;
46589;SDS011;32313;48.722;9.362;2023-05-15T07:11:16;7.23;;;5.50;;
46589;SDS011;32313;48.722;9.362;2023-05-15T07:13:42;7.97;;;5.83;;
46589;SDS011;32313;48.722;9.362;2023-05-15T07:16:08;6.60;;;5.90;;
46589;SDS011;32313;48.722;9.362;2023-05-15T07:18:34;6.30;;;5.70;;
46589;SDS011;32313;48.722;9.362;2023-05-15T07:21:00;5.70;;;5.20;;
46589;SDS011;32313;48.722;9.362;2023-05-15T07:23:26;5.97;;;5.43;;
46589;SDS011;32313;48.722;9.362;2023-05-15T07:25:53;6.03;;;5.53;;
46589;SDS011;32313;48.722;9.362;2023-05-15T07:28:19;8.03;;;6.20;;
46589;SDS011;32313;48.722;9.362;2023-05-15T07:30:46;6.97;;;6.00;;
46589;SDS011;32313;48.722;9.362;2023-05-15T07:33:12;5.97;;;5.47;;
46589;SDS011;32313;48.722;9.362;2023-05-15T07:35:38;6.30;;;5.80;;
46589;SDS011;32313;48.722;9.362;2023-05-15T07:38:04;5.67;;;5.17;;
46589;SDS011;32313;48.722;9.362;2023-05-15T07:40:30;5.53;;;5.03;;
46589;SDS011;32313;48.722;9.362;2023-05-15T07:42:56;6.17;;;5.40;;
46589;SDS011;32313;48.722;9.362;2023-05-15T07:45:23;6.70;;;6.00;;
46589;SDS011;32313;48.722;9.362;2023-05-15T07:47:49;6.37;;;5.13;;
46589;SDS011;32313;48.722;9.362;2023-05-15T07:50:15;6.27;;;4.80;;
46589;SDS011;32313;48.722;9.362;2023-05-15T07:52:41;6.80;;;5.50;;
46589;SDS011;32313;48.722;9.362;2023-05-15T07:55:08;5.47;;;4.97;;
46589;SDS011;32313;48.722;9.362;2023-05-15T07:57:34;5.73;;;4.83;;
46589;SDS011;32313;48.722;9.362;2023-05-15T08:00:01;5.50;;;5.00;;
46589;SDS011;32313;48.722;9.362;2023-05-15T08:02:36;5.67;;;5.17;;
46589;SDS011;32313;48.722;9.362;2023-05-15T08:05:03;6.50;;;5.17;;
46589;SDS011;32313;48.722;9.362;2023-05-15T08:07:33;6.37;;;5.73;;
46589;SDS011;32313;48.722;9.362;2023-05-15T08:09:59;5.20;;;4.70;;
46589;SDS011;32313;48.722;9.362;2023-05-15T08:12:25;5.57;;;5.00;;
46589;SDS011;32313;48.722;9.362;2023-05-15T08:14:52;4.70;;;4.30;;
46589;SDS011;32313;48.722;9.362;2023-05-15T08:17:19;5.37;;;4.87;;
46589;SDS011;32313;48.722;9.362;2023-05-15T08:19:46;5.90;;;5.03;;
46589;SDS011;32313;48.722;9.362;2023-05-15T08:22:12;5.57;;;4.87;;
46589;SDS011;32313;48.722;9.362;2023-05-15T08:24:38;5.03;;;4.53;;
46589;SDS011;32313;48.722;9.362;2023-05-15T08:27:05;5.90;;;5.20;;
46589;SDS011;32313;48.722;9.362;2023-05-15T08:29:33;4.40;;;4.00;;
46589;SDS011;32313;48.722;9.362;2023-05-15T08:32:02;4.40;;;4.00;;
46589;SDS011;32313;48.722;9.362;2023-05-15T08:34:28;5.10;;;4.50;;
46589;SDS011;32313;48.722;9.362;2023-05-15T08:36:54;3.83;;;3.33;;
46589;SDS011;32313;48.722;9.362;2023-05-15T08:39:21;3.23;;;3.00;;
46589;SDS011;32313;48.722;9.362;2023-05-15T08:42:02;4.57;;;3.83;;
46589;SDS011;32313;48.722;9.362;2023-05-15T08:44:32;3.40;;;3.10;;
46589;SDS011;32313;48.722;9.362;2023-05-15T08:46:58;3.93;;;3.63;;
46589;SDS011;32313;48.722;9.362;2023-05-15T08:52:12;4.90;;;3.97;;
46589;SDS011;32313;48.722;9.362;2023-05-15T08:54:39;4.07;;;3.40;;
46589;SDS011;32313;48.722;9.362;2023-05-15T08:57:05;4.07;;;3.60;;
46589;SDS011;32313;48.722;9.362;2023-05-15T08:59:31;3.47;;;3.17;;
46589;SDS011;32313;48.722;9.362;2023-05-15T09:01:57;5.37;;;3.57;;
46589;SDS011;32313;48.722;9.362;2023-05-15T09:04:24;3.37;;;3.13;;
46589;SDS011;32313;48.722;9.362;2023-05-15T09:06:50;3.93;;;3.63;;
46589;SDS011;32313;48.722;9.362;2023-05-15T09:09:16;8.70;;;3.47;;
46589;SDS011;32313;48.722;9.362;2023-05-15T09:11:43;5.10;;;3.40;;
46589;SDS011;32313;48.722;9.362;2023-05-15T09:14:12;3.93;;;3.60;;
46589;SDS011;32313;48.722;9.362;2023-05-15T09:16:37;3.93;;;3.37;;
46589;SDS011;32313;48.722;9.362;2023-05-15T09:19:04;3.60;;;3.30;;
46589;SDS011;32313;48.722;9.362;2023-05-15T09:21:30;3.53;;;3.23;;
46589;SDS011;32313;48.722;9.362;2023-05-15T09:26:47;4.32;;;3.58;;
46589;SDS011;32313;48.722;9.362;2023-05-15T09:29:29;3.87;;;2.80;;
46589;SDS011;32313;48.722;9.362;2023-05-15T09:31:55;4.23;;;3.83;;
46589;SDS011;32313;48.722;9.362;2023-05-15T09:34:28;3.97;;;3.60;;
46589;SDS011;32313;48.722;9.362;2023-05-15T09:36:56;3.90;;;3.60;;
46589;SDS011;32313;48.722;9.362;2023-05-15T09:39:22;4.43;;;3.43;;
46589;SDS011;32313;48.722;9.362;2023-05-15T09:41:47;3.60;;;2.90;;
46589;SDS011;32313;48.722;9.362;2023-05-15T09:44:16;2.97;;;2.77;;
46589;SDS011;32313;48.722;9.362;2023-05-15T09:46:49;3.23;;;2.63;;
46589;SDS011;32313;48.722;9.362;2023-05-15T09:49:16;3.90;;;3.47;;
46589;SDS011;32313;48.722;9.362;2023-05-15T09:51:46;3.53;;;3.20;;
46589;SDS011;32313;48.722;9.362;2023-05-15T09:54:16;3.70;;;3.40;;
46589;SDS011;32313;48.722;9.362;2023-05-15T09:56:46;5.33;;;3.30;;
46589;SDS011;32313;48.722;9.362;2023-05-15T09:59:13;3.63;;;3.33;;
46589;SDS011;32313;48.722;9.362;2023-05-15T10:01:42;4.77;;;3.30;;
46589;SDS011;32313;48.722;9.362;2023-05-15T10:04:10;4.13;;;3.27;;
46589;SDS011;32313;48.722;9.362;2023-05-15T10:06:37;4.17;;;3.00;;
46589;SDS011;32313;48.722;9.362;2023-05-15T10:09:05;3.37;;;3.07;;
46589;SDS011;32313;48.722;9.362;2023-05-15T10:11:35;3.50;;;3.20;;
46589;SDS011;32313;48.722;9.362;2023-05-15T10:14:03;3.63;;;3.00;;
46589;SDS011;32313;48.722;9.362;2023-05-15T10:16:30;3.73;;;3.43;;
46589;SDS011;32313;48.722;9.362;2023-05-15T10:18:59;3.60;;;3.13;;
46589;SDS011;32313;48.722;9.362;2023-05-15T10:21:28;3.57;;;3.27;;
46589;SDS011;32313;48.722;9.362;2023-05-15T10:23:58;3.83;;;3.13;;
46589;SDS011;32313;48.722;9.362;2023-05-15T10:26:43;3.57;;;3.20;;
46589;SDS011;32313;48.722;9.362;2023-05-15T10:29:09;4.13;;;3.73;;
46589;SDS011;32313;48.722;9.362;2023-05-15T10:31:40;4.47;;;3.63;;
46589;SDS011;32313;48.722;9.362;2023-05-15T10:34:06;4.37;;;3.37;;
46589;SDS011;32313;48.722;9.362;2023-05-15T10:36:33;3.97;;;3.53;;
46589;SDS011;32313;48.722;9.362;2023-05-15T10:39:06;3.70;;;3.40;;
46589;SDS011;32313;48.722;9.362;2023-05-15T10:41:35;3.33;;;3.03;;
46589;SDS011;32313;48.722;9.362;2023-05-15T10:44:02;3.43;;;3.17;;
46589;SDS011;32313;48.722;9.362;2023-05-15T10:46:29;6.57;;;3.20;;
46589;SDS011;32313;48.722;9.362;2023-05-15T10:48:57;3.23;;;2.97;;
46589;SDS011;32313;48.722;9.362;2023-05-15T10:53:51;3.50;;;3.20;;
46589;SDS011;32313;48.722;9.362;2023-05-15T10:56:18;2.75;;;2.55;;
46589;SDS011;32313;48.722;9.362;2023-05-15T10:58:48;3.17;;;2.88;;
46589;SDS011;32313;48.722;9.362;2023-05-15T11:01:24;3.07;;;2.77;;
46589;SDS011;32313;48.722;9.362;2023-05-15T11:06:33;3.17;;;2.87;;
46589;SDS011;32313;48.722;9.362;2023-05-15T11:09:43;3.17;;;2.87;;
46589;SDS011;32313;48.722;9.362;2023-05-15T11:12:00;3.00;;;2.70;;
46589;SDS011;32313;48.722;9.362;2023-05-15T11:17:15;2.60;;;2.40;;
46589;SDS011;32313;48.722;9.362;2023-05-15T11:22:16;3.80;;;2.97;;
46589;SDS011;32313;48.722;9.362;2023-05-15T11:30:11;2.60;;;2.40;;
46589;SDS011;32313;48.722;9.362;2023-05-15T11:35:18;3.13;;;2.83;;
46589;SDS011;32313;48.722;9.362;2023-05-15T11:37:51;4.00;;;3.00;;
46589;SDS011;32313;48.722;9.362;2023-05-15T11:40:30;3.07;;;2.73;;
46589;SDS011;32313;48.722;9.362;2023-05-15T11:42:58;4.70;;;3.03;;
46589;SDS011;32313;48.722;9.362;2023-05-15T11:45:27;2.57;;;2.37;;
46589;SDS011;32313;48.722;9.362;2023-05-15T11:47:55;3.03;;;2.83;;
46589;SDS011;32313;48.722;9.362;2023-05-15T11:50:22;2.63;;;2.43;;
46589;SDS011;32313;48.722;9.362;2023-05-15T11:52:49;3.03;;;2.70;;
46589;SDS011;32313;48.722;9.362;2023-05-15T11:55:16;7.20;;;2.87;;
46589;SDS011;32313;48.722;9.362;2023-05-15T11:57:47;4.45;;;2.67;;
46589;SDS011;32313;48.722;9.362;2023-05-15T12:00:13;2.50;;;2.28;;
46589;SDS011;32313;48.722;9.362;2023-05-15T12:02:40;3.85;;;2.65;;
46589;SDS011;32313;48.722;9.362;2023-05-15T12:05:06;2.95;;;2.65;;
46589;SDS011;32313;48.722;9.362;2023-05-15T12:07:36;2.53;;;2.33;;
46589;SDS011;32313;48.722;9.362;2023-05-15T12:10:05;2.85;;;2.17;;
46589;SDS011;32313;48.722;9.362;2023-05-15T12:12:34;2.40;;;2.20;;
46589;SDS011;32313;48.722;9.362;2023-05-15T12:15:01;2.45;;;2.15;;
46589;SDS011;32313;48.722;9.362;2023-05-15T12:17:27;2.47;;;2.22;;
46589;SDS011;32313;48.722;9.362;2023-05-15T12:19:55;2.15;;;1.92;;
46589;SDS011;32313;48.722;9.362;2023-05-15T12:22:22;3.70;;;2.17;;
46589;SDS011;32313;48.722;9.362;2023-05-15T12:24:47;48.78;;;4.82;;
46589;SDS011;32313;48.722;9.362;2023-05-15T12:27:13;4.00;;;2.92;;
46589;SDS011;32313;48.722;9.362;2023-05-15T12:29:40;4.28;;;2.70;;
46589;SDS011;32313;48.722;9.362;2023-05-15T12:32:06;7.15;;;2.38;;
46589;SDS011;32313;48.722;9.362;2023-05-15T12:34:33;5.20;;;2.80;;
46589;SDS011;32313;48.722;9.362;2023-05-15T12:36:59;2.67;;;2.30;;
46589;SDS011;32313;48.722;9.362;2023-05-15T12:39:25;2.50;;;2.30;;
46589;SDS011;32313;48.722;9.362;2023-05-15T12:41:51;2.40;;;2.13;;
46589;SDS011;32313;48.722;9.362;2023-05-15T12:44:20;6.57;;;3.00;;
46589;SDS011;32313;48.722;9.362;2023-05-15T12:46:46;2.30;;;2.10;;
46589;SDS011;32313;48.722;9.362;2023-05-15T12:49:12;2.70;;;2.50;;
46589;SDS011;32313;48.722;9.362;2023-05-15T12:51:41;4.67;;;2.57;;
46589;SDS011;32313;48.722;9.362;2023-05-15T12:54:18;3.03;;;2.50;;
46589;SDS011;32313;48.722;9.362;2023-05-15T12:56:45;2.80;;;2.60;;
46589;SDS011;32313;48.722;9.362;2023-05-15T12:59:14;4.73;;;2.70;;
46589;SDS011;32313;48.722;9.362;2023-05-15T13:01:40;6.07;;;3.00;;
46589;SDS011;32313;48.722;9.362;2023-05-15T13:04:06;3.80;;;2.80;;
46589;SDS011;32313;48.722;9.362;2023-05-15T13:06:33;3.00;;;2.70;;
46589;SDS011;32313;48.722;9.362;2023-05-15T13:08:58;2.93;;;2.53;;
46589;SDS011;32313;48.722;9.362;2023-05-15T13:11:28;4.43;;;2.63;;
46589;SDS011;32313;48.722;9.362;2023-05-15T13:13:55;4.27;;;2.83;;
46589;SDS011;32313;48.722;9.362;2023-05-15T13:16:30;5.30;;;2.67;;
46589;SDS011;32313;48.722;9.362;2023-05-15T13:18:57;3.13;;;2.70;;
46589;SDS011;32313;48.722;9.362;2023-05-15T13:21:23;3.00;;;2.70;;
46589;SDS011;32313;48.722;9.362;2023-05-15T13:23:49;4.77;;;2.83;;
46589;SDS011;32313;48.722;9.362;2023-05-15T13:26:16;3.10;;;2.70;;
46589;SDS011;32313;48.722;9.362;2023-05-15T13:28:42;3.10;;;2.80;;
46589;SDS011;32313;48.722;9.362;2023-05-15T13:31:07;3.17;;;2.87;;
46589;SDS011;32313;48.722;9.362;2023-05-15T13:33:34;2.80;;;2.60;;
46589;SDS011;32313;48.722;9.362;2023-05-15T13:36:00;5.43;;;2.87;;
46589;SDS011;32313;48.722;9.362;2023-05-15T13:38:26;2.90;;;2.70;;
46589;SDS011;32313;48.722;9.362;2023-05-15T13:40:52;2.97;;;2.60;;
46589;SDS011;32313;48.722;9.362;2023-05-15T13:43:17;3.20;;;2.80;;
46589;SDS011;32313;48.722;9.362;2023-05-15T13:45:43;3.10;;;2.13;;
46589;SDS011;32313;48.722;9.362;2023-05-15T13:48:09;3.00;;;2.70;;
46589;SDS011;32313;48.722;9.362;2023-05-15T13:50:35;2.70;;;2.50;;
46589;SDS011;32313;48.722;9.362;2023-05-15T13:53:00;2.90;;;2.37;;
46589;SDS011;32313;48.722;9.362;2023-05-15T13:55:26;2.47;;;2.27;;
46589;SDS011;32313;48.722;9.362;2023-05-15T13:57:52;3.70;;;2.53;;
46589;SDS011;32313;48.722;9.362;2023-05-15T14:00:19;2.50;;;2.30;;
46589;SDS011;32313;48.722;9.362;2023-05-15T14:02:45;2.57;;;2.37;;
46589;SDS011;32313;48.722;9.362;2023-05-15T14:05:12;2.70;;;2.50;;
46589;SDS011;32313;48.722;9.362;2023-05-15T14:07:39;2.90;;;2.70;;
46589;SDS011;32313;48.722;9.362;2023-05-15T14:10:05;2.67;;;2.40;;
46589;SDS011;32313;48.722;9.362;2023-05-15T14:12:32;5.25;;;2.40;;
46589;SDS011;32313;48.722;9.362;2023-05-15T14:14:58;2.72;;;2.53;;
46589;SDS011;32313;48.722;9.362;2023-05-15T14:17:24;5.05;;;2.20;;
46589;SDS011;32313;48.722;9.362;2023-05-15T14:19:49;2.80;;;2.60;;
46589;SDS011;32313;48.722;9.362;2023-05-15T14:22:15;2.70;;;2.50;;
46589;SDS011;32313;48.722;9.362;2023-05-15T14:24:41;2.70;;;2.50;;
46589;SDS011;32313;48.722;9.362;2023-05-15T14:27:07;3.17;;;2.87;;
46589;SDS011;32313;48.722;9.362;2023-05-15T14:29:33;3.57;;;3.00;;
46589;SDS011;32313;48.722;9.362;2023-05-15T14:31:59;3.47;;;2.70;;
46589;SDS011;32313;48.722;9.362;2023-05-15T14:34:25;3.47;;;2.70;;
46589;SDS011;32313;48.722;9.362;2023-05-15T14:36:51;3.77;;;3.30;;
46589;SDS011;32313;48.722;9.362;2023-05-15T14:39:17;3.30;;;2.70;;
46589;SDS011;32313;48.722;9.362;2023-05-15T14:41:43;5.67;;;3.10;;
46589;SDS011;32313;48.722;9.362;2023-05-15T14:44:09;6.97;;;3.30;;
46589;SDS011;32313;48.722;9.362;2023-05-15T14:46:35;3.90;;;2.90;;
46589;SDS011;32313;48.722;9.362;2023-05-15T14:49:05;3.50;;;3.00;;
46589;SDS011;32313;48.722;9.362;2023-05-15T14:51:30;3.87;;;3.20;;
46589;SDS011;32313;48.722;9.362;2023-05-15T14:53:56;3.43;;;3.10;;
46589;SDS011;32313;48.722;9.362;2023-05-15T14:56:22;4.60;;;3.33;;
46589;SDS011;32313;48.722;9.362;2023-05-15T14:58:48;3.47;;;2.80;;
46589;SDS011;32313;48.722;9.362;2023-05-15T15:01:15;8.63;;;3.67;;
46589;SDS011;32313;48.722;9.362;2023-05-15T15:03:41;5.27;;;3.20;;
46589;SDS011;32313;48.722;9.362;2023-05-15T15:06:07;4.50;;;2.80;;
46589;SDS011;32313;48.722;9.362;2023-05-15T15:08:32;3.20;;;2.90;;
46589;SDS011;32313;48.722;9.362;2023-05-15T15:10:58;4.38;;;3.10;;
46589;SDS011;32313;48.722;9.362;2023-05-15T15:13:24;3.90;;;2.70;;
46589;SDS011;32313;48.722;9.362;2023-05-15T15:15:52;3.40;;;2.92;;